Time;durP1;ratioP1;P1;durP2;ratioP2;P2;SDS_P1;SDS_P2;PMS_P1;PMS_P2;Temp;Humidity;BMP_temperature;BMP_pressure;BME280_temperature;BME280_humidity;BME280_pressure;Samples;Min_cycle;Max_cycle;Signal;HPM_P1;HPM_P2
2022/01/24 00:00:05;;;;;;;;;;;;;;;15.17;38.37;103579.34;5096475;28;20007;-80
2022/01/24 00:02:32;;;;;;;;;;;;;;;15.15;38.53;103582.13;5095897;28;19938;-81
2022/01/24 00:04:57;;;;;;;;;;;;;;;15.41;38.05;103577.88;5097248;28;19943;-80
2022/01/24 00:07:24;;;;;;;;;;;;;;;15.54;38.17;103576.66;5114751;28;19939;-80
2022/01/24 00:09:52;;;;;;;;;;;;;;;15.52;37.95;103578.53;5116487;28;19916;-80
2022/01/24 00:12:25;;;;;;;;;;;;;;;15.46;38.05;103580.50;5100239;28;19969;-80
2022/01/24 00:17:36;;;;;;;;;;;;;;;15.28;39.33;103570.91;5109815;28;19923;-80
2022/01/24 00:28:06;;;;;;;;;;;;;;;14.95;40.26;103571.69;5117276;28;19922;-79
2022/01/24 00:30:31;;;;;;;;;;;;;;;15.26;39.51;103565.50;5116063;28;19920;-80
2022/01/24 00:32:56;;;;;;;;;;;;;;;15.20;39.80;103568.38;5115899;28;19916;-79
2022/01/24 00:35:22;;;;;;;;;;;;;;;15.11;39.91;103569.47;5117334;28;20402;-80
2022/01/24 00:37:47;;;;;;;;;;;;;;;15.28;39.64;103560.00;5115996;28;19920;-81
2022/01/24 00:40:12;;;;;;;;;;;;;;;15.43;39.63;103567.84;5116083;28;19920;-78
2022/01/24 00:42:57;;;;;;;;;;;;;;;14.67;40.13;103565.94;5117611;28;19916;-79
2022/01/24 00:55:40;;;;;;;;;;;;;;;15.49;39.22;103559.50;5117837;28;20022;-78
2022/01/24 00:58:05;;;;;;;;;;;;;;;14.83;40.53;103564.66;5116495;28;19959;-80
2022/01/24 01:00:31;;;;;;;;;;;;;;;15.02;40.39;103556.06;5116471;28;19916;-79
2022/01/24 01:02:56;;;;;;;;;;;;;;;15.33;39.61;103553.50;5116443;28;19916;-80
2022/01/24 01:05:49;;;;;;;;;;;;;;;15.40;39.45;103557.91;5117355;28;19912;-81
2022/01/24 01:18:54;;;;;;;;;;;;;;;15.38;39.67;103558.84;5117076;28;19966;-80
2022/01/24 01:21:20;;;;;;;;;;;;;;;14.93;40.37;103553.56;5117434;28;19920;-79
2022/01/24 01:23:52;;;;;;;;;;;;;;;15.35;39.59;103561.66;5117250;28;19927;-80
2022/01/24 01:26:36;;;;;;;;;;;;;;;15.42;39.63;103560.59;5115888;28;19916;-80
2022/01/24 01:29:07;;;;;;;;;;;;;;;14.93;40.40;103546.28;5115528;28;20349;-80
2022/01/24 01:32:35;;;;;;;;;;;;;;;15.11;40.64;103558.56;5115930;28;19919;-80
2022/01/24 01:53:29;;;;;;;;;;;;;;;15.30;40.62;103542.69;5115416;28;19931;-80
2022/01/24 01:55:52;;;;;;;;;;;;;;;15.08;41.17;103555.91;5114758;28;20273;-80
2022/01/24 01:58:19;;;;;;;;;;;;;;;14.98;41.35;103547.06;5114956;28;19916;-80
2022/01/24 02:00:46;;;;;;;;;;;;;;;14.93;41.57;103551.75;5113859;28;19915;-80
2022/01/24 02:03:12;;;;;;;;;;;;;;;14.88;41.98;103553.66;5114586;28;19985;-80
2022/01/24 02:05:37;;;;;;;;;;;;;;;14.95;41.66;103548.97;5113002;28;19968;-79
2022/01/24 02:08:03;;;;;;;;;;;;;;;15.03;41.34;103549.69;5114267;28;19916;-79
2022/01/24 02:10:29;;;;;;;;;;;;;;;15.02;41.60;103554.25;5112911;28;19963;-81
2022/01/24 02:12:55;;;;;;;;;;;;;;;14.94;41.78;103548.06;5114423;28;20351;-80
2022/01/24 02:15:52;;;;;;;;;;;;;;;15.19;41.41;103552.97;5113656;28;19922;-80
2022/01/24 02:18:15;;;;;;;;;;;;;;;15.27;41.27;103544.59;5114909;28;19916;-80
2022/01/24 02:24:05;;;;;;;;;;;;;;;14.79;42.11;103540.25;5115625;28;19958;-80
2022/01/24 02:26:09;;;;;;;;;;;;;;;14.88;41.68;103538.19;5110992;28;19916;-81
2022/01/24 02:28:49;;;;;;;;;;;;;;;14.59;41.30;103532.47;5113942;28;19960;-81
2022/01/24 02:33:58;;;;;;;;;;;;;;;14.77;40.93;103532.09;5115483;28;19923;-80
2022/01/24 02:36:24;;;;;;;;;;;;;;;13.86;43.02;103535.72;5115157;28;19942;-80
2022/01/24 02:49:47;;;;;;;;;;;;;;;13.53;45.32;103529.97;5117274;28;19922;-80
2022/01/24 02:52:14;;;;;;;;;;;;;;;13.96;45.20;103532.78;5118533;28;20011;-80
2022/01/24 02:54:40;;;;;;;;;;;;;;;13.62;45.55;103527.97;5117208;28;19915;-82
2022/01/24 02:57:07;;;;;;;;;;;;;;;12.98;45.28;103524.44;5117198;28;19923;-81
2022/01/24 02:59:32;;;;;;;;;;;;;;;13.27;42.28;103523.06;5117254;28;20377;-81
2022/01/24 03:01:57;;;;;;;;;;;;;;;13.33;44.29;103525.72;5117042;28;19928;-80
2022/01/24 03:04:23;;;;;;;;;;;;;;;13.81;44.60;103525.84;5118492;28;19926;-81
2022/01/24 03:06:49;;;;;;;;;;;;;;;13.80;45.22;103524.03;5118319;28;19916;-81
2022/01/24 03:09:14;;;;;;;;;;;;;;;14.36;43.92;103515.69;5118313;28;19916;-81
2022/01/24 03:14:27;;;;;;;;;;;;;;;14.14;44.30;103515.22;5118353;28;20011;-80
2022/01/24 03:16:53;;;;;;;;;;;;;;;14.23;44.31;103515.97;5117859;28;20302;-82
2022/01/24 03:19:18;;;;;;;;;;;;;;;14.26;44.07;103507.75;5116508;28;19916;-81
2022/01/24 03:21:44;;;;;;;;;;;;;;;13.99;44.68;103500.09;5116725;28;19924;-80
2022/01/24 03:24:09;;;;;;;;;;;;;;;13.97;43.31;103506.50;5116630;28;20333;-81
2022/01/24 03:26:34;;;;;;;;;;;;;;;14.27;43.12;103510.44;5118119;28;19916;-81
2022/01/24 03:29:00;;;;;;;;;;;;;;;14.39;43.15;103512.00;5116407;28;19931;-81
2022/01/24 03:31:25;;;;;;;;;;;;;;;14.09;43.61;103500.81;5116238;28;19915;-80
2022/01/24 03:33:50;;;;;;;;;;;;;;;13.83;44.26;103504.94;5116215;28;19916;-81
2022/01/24 03:36:15;;;;;;;;;;;;;;;13.73;45.36;103506.03;5115800;28;19966;-82
2022/01/24 03:38:41;;;;;;;;;;;;;;;13.79;45.15;103496.84;5116247;28;19923;-81
2022/01/24 03:41:06;;;;;;;;;;;;;;;13.86;43.70;103493.09;5116200;28;19916;-81
2022/01/24 03:43:31;;;;;;;;;;;;;;;14.30;42.62;103498.59;5115971;28;20393;-81
2022/01/24 03:46:12;;;;;;;;;;;;;;;14.54;41.46;103497.16;5115961;28;19911;-81
2022/01/24 03:48:43;;;;;;;;;;;;;;;14.50;40.83;103493.59;5115743;28;19923;-82
2022/01/24 03:51:08;;;;;;;;;;;;;;;13.72;40.67;103500.59;5115663;28;19919;-81
2022/01/24 03:53:33;;;;;;;;;;;;;;;14.67;39.36;103503.25;5115592;28;19926;-82
2022/01/24 03:55:59;;;;;;;;;;;;;;;14.63;39.73;103504.25;5115453;28;19943;-81
2022/01/24 03:58:24;;;;;;;;;;;;;;;14.27;40.54;103504.09;5116965;28;19998;-82
2022/01/24 04:00:49;;;;;;;;;;;;;;;13.69;41.75;103501.53;5116827;28;20010;-80
2022/01/24 04:03:14;;;;;;;;;;;;;;;13.50;40.82;103505.53;5116226;28;19916;-82
2022/01/24 04:05:41;;;;;;;;;;;;;;;14.38;39.45;103504.75;5116072;28;19916;-82
2022/01/24 04:08:06;;;;;;;;;;;;;;;13.06;41.38;103508.03;5116093;28;19995;-82
2022/01/24 04:10:40;;;;;;;;;;;;;;;12.94;40.78;103509.13;5117123;28;19950;-81
2022/01/24 04:13:18;;;;;;;;;;;;;;;13.88;39.30;103502.13;5115899;28;20280;-80
2022/01/24 04:15:57;;;;;;;;;;;;;;;14.64;37.96;103500.59;5116947;28;19916;-78
2022/01/24 04:18:36;;;;;;;;;;;;;;;14.85;37.58;103496.50;5115736;28;19919;-81
2022/01/24 04:23:49;;;;;;;;;;;;;;;15.20;37.42;103509.31;5117141;28;20348;-82
2022/01/24 04:26:15;;;;;;;;;;;;;;;15.03;37.78;103506.06;5115518;28;19923;-82
2022/01/24 04:28:40;;;;;;;;;;;;;;;14.41;39.16;103501.97;5116746;28;19912;-81
2022/01/24 04:31:05;;;;;;;;;;;;;;;13.80;41.48;103505.00;5115500;28;19923;-80
2022/01/24 04:33:31;;;;;;;;;;;;;;;14.32;40.17;103507.59;5116523;28;19923;-81
2022/01/24 04:35:56;;;;;;;;;;;;;;;14.87;39.38;103505.53;5116505;28;19923;-80
2022/01/24 04:38:21;;;;;;;;;;;;;;;14.32;40.14;103504.88;5115437;28;19922;-82
2022/01/24 04:40:46;;;;;;;;;;;;;;;14.05;41.13;103506.34;5116673;28;20327;-81
2022/01/24 04:43:31;;;;;;;;;;;;;;;14.26;40.63;103508.63;5116483;28;20314;-82
2022/01/24 04:46:05;;;;;;;;;;;;;;;13.26;42.31;103495.00;5116331;28;19927;-81
2022/01/24 04:51:31;;;;;;;;;;;;;;;12.54;43.88;103491.53;5116157;28;19966;-81
2022/01/24 04:56:37;;;;;;;;;;;;;;;13.53;42.65;103500.06;5115438;28;20203;-82
2022/01/24 04:59:02;;;;;;;;;;;;;;;13.05;43.98;103500.78;5115116;28;20381;-82
2022/01/24 05:01:27;;;;;;;;;;;;;;;12.86;44.18;103492.94;5115965;28;20007;-81
2022/01/24 05:03:53;;;;;;;;;;;;;;;13.23;43.25;103486.00;5114773;28;19916;-81
2022/01/24 05:06:18;;;;;;;;;;;;;;;13.19;43.41;103489.69;5114929;28;19955;-80
2022/01/24 05:08:43;;;;;;;;;;;;;;;12.03;45.38;103489.47;5114915;28;20388;-82
2022/01/24 05:11:12;;;;;;;;;;;;;;;12.89;43.96;103491.97;5114309;28;19923;-80
2022/01/24 05:24:30;;;;;;;;;;;;;;;12.87;42.98;103483.84;5116110;28;19922;-81
2022/01/24 05:26:56;;;;;;;;;;;;;;;12.88;43.04;103485.66;5110220;28;19943;-82
2022/01/24 05:29:21;;;;;;;;;;;;;;;12.89;43.17;103491.97;5095257;28;19916;-82
2022/01/24 05:31:46;;;;;;;;;;;;;;;12.54;43.53;103486.09;5093736;28;20026;-81
2022/01/24 05:34:12;;;;;;;;;;;;;;;13.12;43.13;103487.09;5093538;28;19927;-81
2022/01/24 05:36:37;;;;;;;;;;;;;;;13.09;42.64;103495.28;5096182;28;19916;-81
2022/01/24 05:39:02;;;;;;;;;;;;;;;12.66;44.67;103487.75;5095227;28;19920;-81
2022/01/24 05:41:28;;;;;;;;;;;;;;;12.69;43.52;103490.44;5095960;28;20382;-79
2022/01/24 05:43:53;;;;;;;;;;;;;;;12.92;43.05;103492.84;5094277;28;20002;-80
2022/01/24 05:46:18;;;;;;;;;;;;;;;12.27;43.61;103498.22;5094107;28;19979;-79
2022/01/24 05:48:43;;;;;;;;;;;;;;;12.49;43.96;103488.00;5093619;28;19916;-80
2022/01/24 05:51:08;;;;;;;;;;;;;;;12.24;43.61;103492.84;5094441;28;19927;-81
2022/01/24 05:53:34;;;;;;;;;;;;;;;13.12;42.23;103488.91;5093979;28;19924;-81
2022/01/24 05:55:59;;;;;;;;;;;;;;;13.69;41.34;103496.09;5094213;28;19942;-81
2022/01/24 05:58:24;;;;;;;;;;;;;;;13.86;41.12;103494.91;5094052;28;19923;-82
2022/01/24 06:00:50;;;;;;;;;;;;;;;12.47;42.54;103494.34;5095546;28;19916;-81
2022/01/24 06:03:15;;;;;;;;;;;;;;;12.74;41.10;103499.44;5095255;28;19977;-82
2022/01/24 06:05:40;;;;;;;;;;;;;;;13.03;40.54;103500.81;5095303;28;19923;-81
2022/01/24 06:08:05;;;;;;;;;;;;;;;12.41;41.87;103500.78;5094319;28;20285;-81
2022/01/24 06:10:30;;;;;;;;;;;;;;;13.64;40.03;103498.03;5094603;28;19917;-79
2022/01/24 06:12:56;;;;;;;;;;;;;;;13.78;39.47;103505.94;5095693;28;19916;-82
2022/01/24 06:15:22;;;;;;;;;;;;;;;13.09;40.84;103508.88;5095437;28;19961;-83
2022/01/24 06:17:47;;;;;;;;;;;;;;;13.62;40.90;103499.88;5094006;28;19966;-82
2022/01/24 06:20:12;;;;;;;;;;;;;;;13.72;40.79;103509.66;5095462;28;20003;-83
2022/01/24 06:22:38;;;;;;;;;;;;;;;13.29;41.59;103513.97;5094412;28;20030;-83
2022/01/24 06:25:04;;;;;;;;;;;;;;;12.58;43.65;103501.44;5098744;28;19916;-84
2022/01/24 06:27:29;;;;;;;;;;;;;;;13.60;42.00;103513.53;5097102;28;19916;-84
2022/01/24 06:29:55;;;;;;;;;;;;;;;12.96;43.20;103509.97;5094607;28;19969;-83
2022/01/24 06:32:20;;;;;;;;;;;;;;;12.54;44.56;103512.38;5096068;28;20029;-82
2022/01/24 06:34:45;;;;;;;;;;;;;;;13.37;42.76;103510.28;5094426;28;20440;-82
2022/01/24 06:37:10;;;;;;;;;;;;;;;13.56;41.82;103510.88;5094664;28;19956;-82
2022/01/24 06:39:35;;;;;;;;;;;;;;;13.35;42.17;103517.59;5096460;28;19916;-83
2022/01/24 06:42:21;;;;;;;;;;;;;;;13.14;42.31;103513.34;5095514;28;19931;-81
2022/01/24 06:44:47;;;;;;;;;;;;;;;12.76;42.43;103511.16;5095756;28;19916;-81
2022/01/24 06:47:12;;;;;;;;;;;;;;;13.47;41.70;103506.50;5096315;28;20259;-81
2022/01/24 06:49:37;;;;;;;;;;;;;;;12.37;42.81;103518.03;5096295;28;20234;-81
2022/01/24 06:52:03;;;;;;;;;;;;;;;12.94;42.33;103506.41;5094703;28;19931;-81
2022/01/24 06:54:28;;;;;;;;;;;;;;;13.20;41.50;103515.97;5094818;28;19927;-82
2022/01/24 06:56:54;;;;;;;;;;;;;;;12.57;42.95;103515.94;5094580;28;19916;-81
2022/01/24 06:59:19;;;;;;;;;;;;;;;13.25;41.83;103511.34;5094744;28;19916;-81
2022/01/24 07:01:44;;;;;;;;;;;;;;;13.18;41.53;103515.06;5096253;28;19952;-81
2022/01/24 07:04:09;;;;;;;;;;;;;;;13.40;41.08;103516.56;5094596;28;20015;-82
2022/01/24 07:06:34;;;;;;;;;;;;;;;12.29;43.19;103520.84;5094813;28;19916;-81
2022/01/24 07:09:00;;;;;;;;;;;;;;;12.74;41.66;103526.59;5094529;28;19951;-81
2022/01/24 07:11:25;;;;;;;;;;;;;;;12.50;42.38;103524.19;5094348;28;19916;-82
2022/01/24 07:13:52;;;;;;;;;;;;;;;12.68;42.70;103523.97;5095728;28;19916;-82
2022/01/24 07:16:17;;;;;;;;;;;;;;;12.75;42.92;103522.94;5094301;28;19927;-82
2022/01/24 07:18:58;;;;;;;;;;;;;;;12.41;42.52;103528.81;5095510;28;19916;-82
2022/01/24 07:21:24;;;;;;;;;;;;;;;12.55;41.97;103535.91;5094907;28;19916;-82
2022/01/24 07:23:49;;;;;;;;;;;;;;;12.29;42.04;103538.91;5094765;28;19993;-82
2022/01/24 07:26:14;;;;;;;;;;;;;;;12.51;42.29;103529.59;5095947;28;19916;-82
2022/01/24 07:28:40;;;;;;;;;;;;;;;13.02;41.26;103537.06;5093333;28;19916;-82
2022/01/24 07:31:05;;;;;;;;;;;;;;;13.59;40.27;103540.75;5093440;28;19916;-82
2022/01/24 07:33:30;;;;;;;;;;;;;;;12.22;43.09;103554.38;5094813;28;20001;-82
2022/01/24 07:35:56;;;;;;;;;;;;;;;12.89;41.76;103554.44;5093040;28;19916;-82
2022/01/24 07:38:21;;;;;;;;;;;;;;;13.15;41.01;103558.63;5095105;28;20124;-82
2022/01/24 07:40:48;;;;;;;;;;;;;;;12.92;40.95;103554.41;5093681;28;19962;-82
2022/01/24 07:43:14;;;;;;;;;;;;;;;11.70;43.27;103567.53;5093585;28;19917;-82
2022/01/24 07:45:44;;;;;;;;;;;;;;;12.74;41.76;103559.19;5095009;28;19927;-82
2022/01/24 07:48:09;;;;;;;;;;;;;;;12.54;42.01;103566.69;5093366;28;19923;-82
2022/01/24 07:50:37;;;;;;;;;;;;;;;12.37;41.96;103570.50;5093117;28;19920;-82
2022/01/24 07:53:02;;;;;;;;;;;;;;;12.62;41.28;103561.16;5094763;28;20405;-81
2022/01/24 07:55:27;;;;;;;;;;;;;;;11.75;42.75;103561.16;5093031;28;19916;-82
2022/01/24 07:57:53;;;;;;;;;;;;;;;12.65;41.35;103553.88;5094489;28;19917;-82
2022/01/24 08:00:18;;;;;;;;;;;;;;;12.16;42.24;103557.16;5093004;28;19982;-82
2022/01/24 08:02:43;;;;;;;;;;;;;;;11.79;42.70;103565.63;5093201;28;19923;-81
2022/01/24 08:05:09;;;;;;;;;;;;;;;12.25;42.28;103562.50;5093031;28;20331;-82
2022/01/24 08:07:35;;;;;;;;;;;;;;;12.55;41.97;103563.94;5093137;28;19922;-82
2022/01/24 08:10:00;;;;;;;;;;;;;;;12.06;42.51;103561.78;5093067;28;19916;-81
2022/01/24 08:12:25;;;;;;;;;;;;;;;12.33;42.73;103566.00;5094137;28;19916;-81
2022/01/24 08:14:51;;;;;;;;;;;;;;;11.76;43.51;103571.06;5092829;28;19916;-83
2022/01/24 08:17:16;;;;;;;;;;;;;;;11.63;44.10;103576.59;5093098;28;20254;-82
2022/01/24 08:19:41;;;;;;;;;;;;;;;11.52;44.03;103568.56;5094437;28;19920;-83
2022/01/24 08:22:06;;;;;;;;;;;;;;;11.59;43.23;103574.81;5092852;28;20369;-82
2022/01/24 08:24:32;;;;;;;;;;;;;;;11.47;44.59;103574.94;5092986;28;19970;-83
2022/01/24 08:26:57;;;;;;;;;;;;;;;12.07;42.82;103571.72;5092741;28;20242;-82
2022/01/24 08:29:22;;;;;;;;;;;;;;;11.72;43.23;103586.50;5093141;28;20373;-82
2022/01/24 08:31:47;;;;;;;;;;;;;;;12.58;41.91;103574.78;5092650;28;20001;-83
2022/01/24 08:34:12;;;;;;;;;;;;;;;11.88;42.60;103569.16;5092875;28;20015;-82
2022/01/24 08:36:38;;;;;;;;;;;;;;;12.33;41.40;103568.72;5093977;28;20289;-82
2022/01/24 08:39:07;;;;;;;;;;;;;;;12.81;40.03;103565.44;5092679;28;20358;-82
2022/01/24 08:44:19;;;;;;;;;;;;;;;13.29;39.26;103562.03;5094366;28;19962;-82
2022/01/24 08:46:45;;;;;;;;;;;;;;;13.62;38.65;103570.63;5093218;28;19970;-81
2022/01/24 08:49:11;;;;;;;;;;;;;;;13.20;39.59;103565.78;5092709;28;19916;-81
2022/01/24 08:51:36;;;;;;;;;;;;;;;12.44;41.03;103571.34;5092314;28;19920;-82
2022/01/24 08:54:02;;;;;;;;;;;;;;;12.51;41.29;103567.59;5093696;28;19920;-82
2022/01/24 08:56:28;;;;;;;;;;;;;;;12.66;41.05;103571.97;5092427;28;19923;-81
2022/01/24 08:58:53;;;;;;;;;;;;;;;13.03;40.34;103567.84;5094400;28;20337;-82
2022/01/24 09:01:18;;;;;;;;;;;;;;;13.04;40.01;103565.09;5092371;28;19969;-81
2022/01/24 09:03:43;;;;;;;;;;;;;;;12.85;39.92;103561.75;5094035;28;20226;-83
2022/01/24 09:06:09;;;;;;;;;;;;;;;12.17;40.45;103575.25;5092176;28;20376;-82
2022/01/24 09:08:35;;;;;;;;;;;;;;;12.94;39.36;103566.19;5092199;28;20354;-81
2022/01/24 09:11:01;;;;;;;;;;;;;;;12.77;39.36;103567.31;5092136;28;19916;-81
2022/01/24 09:13:26;;;;;;;;;;;;;;;12.32;39.95;103568.75;5093446;28;19916;-81
2022/01/24 09:15:51;;;;;;;;;;;;;;;13.37;38.56;103564.66;5091895;28;19916;-81
2022/01/24 09:18:19;;;;;;;;;;;;;;;13.50;38.03;103566.28;5093461;28;19939;-81
2022/01/24 09:20:44;;;;;;;;;;;;;;;13.24;37.92;103567.53;5091797;28;19931;-82
2022/01/24 09:23:09;;;;;;;;;;;;;;;12.75;39.08;103571.84;5091771;28;20015;-82
2022/01/24 09:25:35;;;;;;;;;;;;;;;13.12;39.39;103571.34;5093076;28;19969;-82
2022/01/24 09:28:00;;;;;;;;;;;;;;;13.52;38.22;103560.81;5090940;28;19922;-81
2022/01/24 09:30:25;;;;;;;;;;;;;;;13.94;37.42;103569.16;5090687;28;19916;-83
2022/01/24 09:32:51;;;;;;;;;;;;;;;12.84;38.94;103573.53;5091503;28;20033;-82
2022/01/24 09:35:16;;;;;;;;;;;;;;;12.72;40.07;103573.69;5091621;28;19963;-81
2022/01/24 09:37:42;;;;;;;;;;;;;;;13.40;38.42;103580.94;5091567;28;19930;-81
2022/01/24 09:40:09;;;;;;;;;;;;;;;13.30;38.11;103580.16;5093319;28;19923;-84
2022/01/24 09:42:34;;;;;;;;;;;;;;;13.03;38.50;103582.34;5092189;28;20019;-81
2022/01/24 09:44:59;;;;;;;;;;;;;;;13.57;38.31;103572.50;5090012;28;20018;-83
2022/01/24 09:47:25;;;;;;;;;;;;;;;13.49;37.60;103579.91;5090276;28;19923;-82
2022/01/24 09:49:51;;;;;;;;;;;;;;;13.61;38.25;103577.84;5087413;28;20273;-81
2022/01/24 09:52:16;;;;;;;;;;;;;;;14.08;37.74;103585.22;5106755;27;19931;-82
2022/01/24 09:54:41;;;;;;;;;;;;;;;14.37;37.01;103573.75;5077536;28;19917;-82
2022/01/24 09:57:07;;;;;;;;;;;;;;;14.18;37.38;103581.41;5075800;28;20335;-83
2022/01/24 09:59:32;;;;;;;;;;;;;;;13.33;39.21;103580.09;5084988;28;20005;-82
2022/01/24 10:01:58;;;;;;;;;;;;;;;13.91;38.76;103580.09;5098388;28;19912;-81
2022/01/24 10:04:25;;;;;;;;;;;;;;;13.97;38.30;103588.16;5098082;28;20366;-81
2022/01/24 10:06:56;;;;;;;;;;;;;;;14.25;37.66;103584.91;5098048;28;19925;-81
2022/01/24 10:09:30;;;;;;;;;;;;;;;14.02;38.49;103588.06;5097938;28;20003;-81
2022/01/24 10:12:03;;;;;;;;;;;;;;;14.37;37.97;103590.09;5099286;28;19915;-82
2022/01/24 10:17:19;;;;;;;;;;;;;;;13.50;39.41;103584.38;5099871;28;19924;-83
2022/01/24 10:19:44;;;;;;;;;;;;;;;13.73;38.81;103584.03;5098933;28;19920;-83
2022/01/24 10:22:09;;;;;;;;;;;;;;;13.70;38.37;103582.25;5099165;28;19926;-83
2022/01/24 10:24:37;;;;;;;;;;;;;;;13.64;38.82;103590.53;5097829;28;19922;-84
2022/01/24 10:27:10;;;;;;;;;;;;;;;13.74;39.33;103586.72;5099360;28;19917;-83
2022/01/24 10:30:03;;;;;;;;;;;;;;;14.23;37.98;103584.03;5098212;28;20019;-83
2022/01/24 10:32:33;;;;;;;;;;;;;;;14.39;38.11;103584.63;5097038;28;19919;-83
2022/01/24 10:35:17;;;;;;;;;;;;;;;14.71;37.54;103582.16;5099029;28;20431;-81
2022/01/24 10:37:42;;;;;;;;;;;;;;;14.29;38.33;103586.66;5097457;28;19920;-82
2022/01/24 10:40:19;;;;;;;;;;;;;;;13.78;38.68;103583.03;5096358;28;19923;-83
2022/01/24 10:42:55;;;;;;;;;;;;;;;12.66;41.21;103585.53;5095447;28;20002;-83
2022/01/24 10:45:22;;;;;;;;;;;;;;;12.92;40.46;103584.28;5097076;28;19923;-83
2022/01/24 10:47:50;;;;;;;;;;;;;;;12.82;40.44;103582.63;5096946;28;19916;-82
2022/01/24 10:50:28;;;;;;;;;;;;;;;12.24;41.32;103585.13;5096504;28;20335;-83
2022/01/24 10:52:53;;;;;;;;;;;;;;;11.94;41.32;103581.81;5095598;28;19925;-83
2022/01/24 10:55:20;;;;;;;;;;;;;;;13.18;39.18;103575.78;5097968;28;19924;-82
2022/01/24 10:57:51;;;;;;;;;;;;;;;13.15;38.82;103569.47;5097689;28;19916;-83
2022/01/24 11:00:19;;;;;;;;;;;;;;;13.85;37.92;103566.59;5097571;28;19938;-82
2022/01/24 11:02:48;;;;;;;;;;;;;;;14.19;37.33;103566.84;5097948;28;19916;-83
2022/01/24 11:05:14;;;;;;;;;;;;;;;12.64;40.41;103571.09;5097422;28;20405;-82
2022/01/24 11:07:53;;;;;;;;;;;;;;;12.94;39.97;103561.63;5097378;28;19969;-81
2022/01/24 11:10:20;;;;;;;;;;;;;;;12.73;40.25;103560.09;5094174;28;19919;-82
2022/01/24 11:12:45;;;;;;;;;;;;;;;13.43;38.70;103560.00;5094103;28;19916;-82
2022/01/24 11:15:11;;;;;;;;;;;;;;;12.81;40.20;103554.56;5093886;28;19937;-82
2022/01/24 11:17:37;;;;;;;;;;;;;;;12.88;40.20;103547.25;5094060;28;19916;-82
2022/01/24 11:20:03;;;;;;;;;;;;;;;12.56;41.48;103553.97;5095160;28;19930;-83
2022/01/24 11:22:31;;;;;;;;;;;;;;;14.13;39.11;103543.38;5095173;28;20028;-84
2022/01/24 11:25:00;;;;;;;;;;;;;;;14.60;38.06;103546.06;5093873;28;19955;-83
2022/01/24 11:27:26;;;;;;;;;;;;;;;14.49;37.98;103548.09;5093865;28;20019;-82
2022/01/24 11:29:53;;;;;;;;;;;;;;;14.27;38.50;103534.94;5093605;28;19917;-82
2022/01/24 11:32:19;;;;;;;;;;;;;;;13.21;40.56;103543.13;5095047;28;19916;-80
2022/01/24 11:34:49;;;;;;;;;;;;;;;14.37;38.34;103535.63;5095036;28;19916;-82
2022/01/24 11:37:30;;;;;;;;;;;;;;;14.05;38.67;103534.44;5093527;28;20315;-82
2022/01/24 11:39:55;;;;;;;;;;;;;;;13.79;38.94;103535.84;5092402;28;19916;-83
2022/01/24 11:42:27;;;;;;;;;;;;;;;13.47;40.13;103523.69;5094969;28;20365;-84
2022/01/24 11:44:53;;;;;;;;;;;;;;;13.33;40.02;103533.88;5094954;28;19959;-82
2022/01/24 11:47:20;;;;;;;;;;;;;;;13.71;39.24;103537.81;5095167;28;19966;-83
2022/01/24 11:49:46;;;;;;;;;;;;;;;13.27;40.19;103534.88;5093757;28;19927;-82
2022/01/24 11:52:16;;;;;;;;;;;;;;;14.36;37.97;103528.41;5093449;28;20274;-82
2022/01/24 11:55:42;;;;;;;;;;;;;;;14.46;37.87;103527.28;5093319;28;20289;-83
2022/01/24 11:57:37;;;;;;;;;;;;;;;14.38;38.37;103523.81;5089550;28;19916;-82
2022/01/24 12:00:03;;;;;;;;;;;;;;;14.53;38.18;103523.50;5094593;28;19922;-82
2022/01/24 12:02:30;;;;;;;;;;;;;;;12.99;40.54;103536.22;5093279;28;20435;-82
2022/01/24 12:04:57;;;;;;;;;;;;;;;13.65;39.13;103527.03;5094473;28;20400;-82
2022/01/24 12:07:30;;;;;;;;;;;;;;;13.95;39.21;103531.03;5093062;28;19920;-83
2022/01/24 12:10:15;;;;;;;;;;;;;;;14.08;38.81;103526.22;5092942;28;19927;-82
2022/01/24 12:12:49;;;;;;;;;;;;;;;14.11;38.75;103531.59;5092869;28;19916;-82
2022/01/24 12:15:33;;;;;;;;;;;;;;;13.19;40.43;103531.34;5092934;28;19969;-81
2022/01/24 12:18:01;;;;;;;;;;;;;;;13.88;39.42;103523.00;5092942;28;19916;-81
2022/01/24 12:20:29;;;;;;;;;;;;;;;14.25;38.51;103522.28;5092491;28;20022;-82
2022/01/24 12:22:55;;;;;;;;;;;;;;;14.40;38.58;103527.41;5092239;28;20328;-81
2022/01/24 12:25:40;;;;;;;;;;;;;;;13.65;39.99;103521.59;5094143;28;20007;-83
2022/01/24 12:28:24;;;;;;;;;;;;;;;13.52;40.47;103526.34;5094104;28;19959;-83
2022/01/24 12:30:59;;;;;;;;;;;;;;;14.45;38.46;103520.03;5092462;28;19955;-82
2022/01/24 12:33:30;;;;;;;;;;;;;;;14.51;38.09;103522.63;5093638;28;19916;-81
2022/01/24 12:35:55;;;;;;;;;;;;;;;14.96;37.38;103509.88;5091866;28;19916;-82
2022/01/24 12:38:20;;;;;;;;;;;;;;;15.04;37.03;103507.88;5091773;28;19961;-82
2022/01/24 12:40:47;;;;;;;;;;;;;;;14.85;37.56;103513.72;5092641;28;20285;-82
2022/01/24 12:43:19;;;;;;;;;;;;;;;14.89;37.40;103512.75;5092423;28;20383;-82
2022/01/24 12:48:29;;;;;;;;;;;;;;;15.07;37.53;103513.25;5092747;28;20004;-81
2022/01/24 12:50:54;;;;;;;;;;;;;;;14.64;37.90;103508.78;5091805;28;19982;-82
2022/01/24 12:53:21;;;;;;;;;;;;;;;14.41;38.42;103512.84;5091533;28;19973;-82
2022/01/24 12:55:55;;;;;;;;;;;;;;;15.09;37.36;103514.09;5091752;28;19916;-82
2022/01/24 12:58:29;;;;;;;;;;;;;;;15.05;36.86;103504.19;5091716;28;19939;-82
2022/01/24 13:00:55;;;;;;;;;;;;;;;14.22;38.51;103503.28;5090364;28;19951;-82
2022/01/24 13:03:20;;;;;;;;;;;;;;;13.53;39.41;103492.78;5092401;28;19958;-82
2022/01/24 13:05:45;;;;;;;;;;;;;;;13.62;40.31;103494.44;5093368;28;19960;-82
2022/01/24 13:08:14;;;;;;;;;;;;;;;13.91;39.60;103488.44;5093333;28;19923;-82
2022/01/24 13:10:40;;;;;;;;;;;;;;;14.39;38.49;103490.22;5092056;28;19916;-82
2022/01/24 13:13:10;;;;;;;;;;;;;;;14.71;37.87;103491.38;5092038;28;20081;-82
2022/01/24 13:21:15;;;;;;;;;;;;;;;14.53;38.18;103479.91;5093744;28;19927;-82
2022/01/24 13:23:44;;;;;;;;;;;;;;;14.50;38.46;103477.25;5092098;28;19924;-82
2022/01/24 13:26:10;;;;;;;;;;;;;;;14.78;37.64;103473.94;5091823;28;20019;-82
2022/01/24 13:28:35;;;;;;;;;;;;;;;14.62;37.88;103473.41;5093219;28;19916;-82
2022/01/24 13:31:02;;;;;;;;;;;;;;;14.81;37.56;103471.16;5091767;28;19923;-82
2022/01/24 13:33:30;;;;;;;;;;;;;;;14.69;37.28;103468.72;5091385;28;19916;-81
2022/01/24 13:36:05;;;;;;;;;;;;;;;14.16;38.17;103474.34;5091586;28;19922;-82
2022/01/24 13:38:33;;;;;;;;;;;;;;;14.11;38.88;103469.00;5093161;28;19989;-82
2022/01/24 13:41:00;;;;;;;;;;;;;;;13.99;38.67;103470.16;5087959;28;19923;-80
2022/01/24 13:43:35;;;;;;;;;;;;;;;13.63;39.43;103471.75;5078362;28;19966;-82
2022/01/24 13:46:05;;;;;;;;;;;;;;;13.45;39.53;103476.59;5072364;28;20019;-81
2022/01/24 13:48:37;;;;;;;;;;;;;;;13.41;39.87;103483.00;5072454;28;19917;-81
2022/01/24 13:51:02;;;;;;;;;;;;;;;13.17;39.93;103481.56;5104662;28;20025;-81
2022/01/24 13:53:47;;;;;;;;;;;;;;;13.67;38.74;103475.31;5072372;28;19973;-82
2022/01/24 13:56:20;;;;;;;;;;;;;;;13.85;38.66;103474.09;5072314;28;20019;-81
2022/01/24 13:59:02;;;;;;;;;;;;;;;13.85;38.29;103463.19;5072239;28;19916;-81
2022/01/24 14:01:28;;;;;;;;;;;;;;;14.25;37.99;103473.25;5071114;28;20378;-81
2022/01/24 14:04:01;;;;;;;;;;;;;;;13.33;39.21;103473.16;5104893;28;19956;-81
2022/01/24 14:06:30;;;;;;;;;;;;;;;14.00;38.65;103465.59;5071076;28;19921;-82
2022/01/24 14:09:12;;;;;;;;;;;;;;;13.24;39.20;103466.97;5070835;28;19916;-81
2022/01/24 14:11:39;;;;;;;;;;;;;;;12.73;40.75;103470.47;5070837;28;20003;-81
2022/01/24 14:14:10;;;;;;;;;;;;;;;13.15;41.01;103461.69;5089615;28;20254;-82
2022/01/24 14:19:06;;;;;;;;;;;;;;;12.29;42.41;103455.69;5093018;28;20376;-82
2022/01/24 14:21:31;;;;;;;;;;;;;;;12.05;42.02;103455.06;5091876;28;19920;-82
2022/01/24 14:23:56;;;;;;;;;;;;;;;12.33;42.69;103457.44;5091156;28;19989;-83